Edmundson, Missouri
Current Conditions -  °F | °C
As of 12:51 PM on Thursday 23 Oct 2014 (Local Time) from KSTL Reporting Station
Broken Clouds Broken Clouds  
Wind Chill: 62°   Ceiling: 14000
Heat Index: 62°   Visibility: 10mi
Dew Point: 43°   Wind: 7mph
Humidity: 50%   Direction: 160°SSE
Pressure: 30.18"   Gusts: NA
Location:  38.7422°N, 90.3457°W
Report Text: KSTL 231751Z 16006KT 10SM BKN140 BKN200 17/06 A3018 RMK AO2 SLP219 T01670061 10167 20078 58013
Loading
Personal Weather Stations






























Interactive Weather Map
Tropical Storm Tracking
New forecast layout! Learn more

10-Day Weather Forecast

Advertisements
Track Severe Weather on mobile